createdAt,value
2023-01-27T00:01:18.959Z,93.17
2023-01-27T00:03:46.431Z,93.15
2023-01-27T00:06:14.005Z,93.19
2023-01-27T00:08:41.500Z,93.20
2023-01-27T00:11:27.777Z,93.22
2023-01-27T00:13:56.076Z,93.22
2023-01-27T00:16:23.515Z,93.27
2023-01-27T00:18:51.007Z,93.24
2023-01-27T00:21:37.117Z,93.23
2023-01-27T00:24:23.647Z,93.25
2023-01-27T00:26:51.050Z,93.25
2023-01-27T00:29:19.072Z,93.29
2023-01-27T00:32:04.865Z,93.28
2023-01-27T00:34:32.366Z,93.28
2023-01-27T00:36:59.731Z,93.25
2023-01-27T00:39:27.163Z,93.24
2023-01-27T00:41:55.321Z,93.26
2023-01-27T00:44:23.911Z,93.24
2023-01-27T00:46:51.299Z,93.29
2023-01-27T00:49:18.650Z,93.25
2023-01-27T00:51:45.986Z,93.22
2023-01-27T00:54:14.504Z,93.25
2023-01-27T00:56:41.968Z,93.28
2023-01-27T00:59:09.288Z,93.27
2023-01-27T01:01:37.896Z,93.31
2023-01-27T01:04:05.575Z,93.26
2023-01-27T01:06:32.926Z,93.20
2023-01-27T01:09:00.308Z,93.23
2023-01-27T01:11:28.062Z,93.21
2023-01-27T01:13:56.500Z,93.25
2023-01-27T01:16:25.552Z,93.26
2023-01-27T01:18:53.799Z,93.28
2023-01-27T01:21:21.932Z,93.27
2023-01-27T01:23:49.806Z,93.25
2023-01-27T01:26:18.129Z,93.25
2023-01-27T01:28:46.913Z,93.20
2023-01-27T01:31:19.586Z,93.12
2023-01-27T01:33:48.681Z,93.20
2023-01-27T01:36:19.943Z,93.20
2023-01-27T01:38:48.511Z,93.18
2023-01-27T01:41:20.152Z,93.13
2023-01-27T01:43:49.450Z,93.17
2023-01-27T01:46:19.098Z,93.18
2023-01-27T01:48:54.846Z,93.12
2023-01-27T01:51:39.590Z,93.11
2023-01-27T01:54:17.169Z,93.06
2023-01-27T01:56:53.805Z,93.08
2023-01-27T01:59:28.672Z,93.04
2023-01-27T02:02:01.163Z,93.08
2023-01-27T02:04:36.749Z,93.09
2023-01-27T02:07:28.008Z,93.06
2023-01-27T02:09:57.668Z,93.08
2023-01-27T02:12:25.153Z,93.04
2023-01-27T02:14:52.764Z,93.05
2023-01-27T02:17:22.537Z,93.08
2023-01-27T02:20:19.831Z,93.09
2023-01-27T02:23:08.388Z,93.04
2023-01-27T02:25:44.944Z,93.01
2023-01-27T02:28:12.310Z,93.06
2023-01-27T02:30:39.774Z,93.06
2023-01-27T02:33:13.598Z,93.08
2023-01-27T02:36:08.817Z,93.03
2023-01-27T02:38:49.479Z,93.11
2023-01-27T02:41:37.556Z,93.08
2023-01-27T02:44:06.022Z,93.09
2023-01-27T02:46:33.885Z,93.09
2023-01-27T02:49:01.486Z,93.08
2023-01-27T02:51:30.836Z,93.08
2023-01-27T02:53:59.556Z,93.08
2023-01-27T02:56:27.130Z,93.08
2023-01-27T02:58:56.760Z,93.10
2023-01-27T03:01:32.637Z,93.10
2023-01-27T03:04:00.690Z,93.11
2023-01-27T03:06:28.640Z,93.13
2023-01-27T03:08:56.142Z,93.12
2023-01-27T03:11:41.850Z,93.13
2023-01-27T03:14:09.655Z,93.16
2023-01-27T03:16:55.822Z,93.14
2023-01-27T03:19:23.207Z,93.15
2023-01-27T03:21:51.307Z,93.13
2023-01-27T03:24:19.518Z,93.17
2023-01-27T03:26:47.460Z,93.15
2023-01-27T03:29:35.718Z,93.21
2023-01-27T03:32:03.408Z,93.17
2023-01-27T03:34:31.598Z,93.35
2023-01-27T03:37:33.557Z,93.29
2023-01-27T03:40:20.077Z,93.31
2023-01-27T03:43:06.830Z,93.32
2023-01-27T03:45:52.830Z,93.30
2023-01-27T03:48:21.071Z,93.36
2023-01-27T03:50:53.730Z,93.37
2023-01-27T03:53:21.389Z,93.31
2023-01-27T03:55:48.809Z,93.52
2023-01-27T03:58:23.641Z,93.52
2023-01-27T04:00:58.083Z,93.48
2023-01-27T04:03:46.626Z,93.43
2023-01-27T04:06:38.988Z,93.38
2023-01-27T04:09:08.038Z,93.36
2023-01-27T04:11:54.383Z,93.32
2023-01-27T04:14:43.476Z,93.41
2023-01-27T04:17:19.340Z,93.31
2023-01-27T04:19:47.569Z,93.26
2023-01-27T04:22:17.069Z,93.34
2023-01-27T04:24:44.780Z,93.30
2023-01-27T04:27:18.950Z,93.23
2023-01-27T04:29:46.283Z,93.22
2023-01-27T04:32:14.049Z,93.09
2023-01-27T04:34:42.176Z,93.12
2023-01-27T04:37:10.900Z,93.15
2023-01-27T04:39:38.419Z,93.11
2023-01-27T04:42:05.836Z,93.06
2023-01-27T04:44:33.291Z,93.07
2023-01-27T04:47:00.637Z,93.07
2023-01-27T04:49:28.175Z,93.02
2023-01-27T04:51:56.029Z,93.07
2023-01-27T04:54:23.370Z,93.08
2023-01-27T04:57:05.658Z,93.08
2023-01-27T04:59:33.074Z,93.13
2023-01-27T05:02:00.677Z,93.08
2023-01-27T05:04:28.053Z,93.12
2023-01-27T05:06:55.435Z,93.06
2023-01-27T05:09:23.012Z,93.01
2023-01-27T05:11:50.385Z,93.01
2023-01-27T05:14:17.868Z,93.07
2023-01-27T05:16:45.767Z,93.17
2023-01-27T05:19:13.124Z,93.15
2023-01-27T05:21:40.533Z,93.16
2023-01-27T05:24:08.249Z,93.13
2023-01-27T05:26:35.625Z,93.13
2023-01-27T05:29:04.363Z,93.16
2023-01-27T05:31:32.282Z,93.13
2023-01-27T05:34:01.566Z,93.20
2023-01-27T05:36:30.507Z,93.26
2023-01-27T05:38:59.580Z,93.14
2023-01-27T05:41:32.878Z,93.26
2023-01-27T05:44:00.454Z,93.27
2023-01-27T05:46:31.927Z,93.24
2023-01-27T05:49:04.247Z,93.26
2023-01-27T05:51:37.494Z,93.17
2023-01-27T05:54:05.383Z,93.11
2023-01-27T05:56:33.572Z,93.06
2023-01-27T05:59:01.378Z,93.09
2023-01-27T06:01:33.837Z,93.06
2023-01-27T06:04:01.645Z,93.02
2023-01-27T06:06:32.191Z,93.03
2023-01-27T06:09:00.722Z,93.03
2023-01-27T06:11:28.647Z,92.98
2023-01-27T06:13:56.149Z,92.93
2023-01-27T06:16:23.996Z,92.92
2023-01-27T06:18:52.044Z,92.88
2023-01-27T06:21:20.506Z,92.81
2023-01-27T06:23:48.474Z,92.84
2023-01-27T06:26:19.150Z,92.82
2023-01-27T06:28:47.385Z,92.76
2023-01-27T06:31:19.503Z,92.72
2023-01-27T06:33:47.448Z,92.73
2023-01-27T06:36:18.615Z,92.79
2023-01-27T06:38:46.637Z,92.65
2023-01-27T06:41:14.288Z,92.64
2023-01-27T06:43:41.620Z,92.59
2023-01-27T06:46:09.170Z,92.54
2023-01-27T06:48:38.024Z,92.49
2023-01-27T06:51:06.923Z,92.46
2023-01-27T06:53:37.212Z,92.33
2023-01-27T06:56:05.590Z,92.32
2023-01-27T06:58:33.119Z,92.38
2023-01-27T07:01:00.707Z,92.44
2023-01-27T07:03:28.076Z,92.36
2023-01-27T07:05:55.496Z,92.37
2023-01-27T07:08:22.934Z,92.45
2023-01-27T07:10:50.812Z,92.36
2023-01-27T07:13:18.949Z,92.09
2023-01-27T07:15:46.871Z,92.09
2023-01-27T07:18:14.674Z,92.03
2023-01-27T07:20:42.350Z,91.96
2023-01-27T07:23:10.724Z,92.05
2023-01-27T07:25:39.123Z,91.94
2023-01-27T07:28:07.051Z,91.86
2023-01-27T07:30:35.052Z,91.82
2023-01-27T07:33:07.916Z,91.74
2023-01-27T07:35:39.822Z,91.68
2023-01-27T07:38:07.966Z,91.72
2023-01-27T07:40:35.977Z,91.63
2023-01-27T07:43:03.974Z,91.63
2023-01-27T07:45:34.677Z,91.42
2023-01-27T07:48:04.898Z,91.40
2023-01-27T07:50:32.790Z,91.31
2023-01-27T07:53:03.446Z,91.18
2023-01-27T07:55:32.711Z,91.11
2023-01-27T07:58:00.353Z,91.07
2023-01-27T08:00:29.040Z,90.91
2023-01-27T08:03:00.538Z,90.75
2023-01-27T08:05:32.181Z,90.26
2023-01-27T08:08:03.659Z,90.10
2023-01-27T08:10:32.141Z,89.76
2023-01-27T08:12:59.567Z,89.85
2023-01-27T08:15:27.195Z,89.73
2023-01-27T08:17:59.304Z,89.33
2023-01-27T08:20:28.325Z,88.25
2023-01-27T08:22:56.392Z,87.92
2023-01-27T08:25:24.700Z,87.92
2023-01-27T08:27:54.813Z,87.58
2023-01-27T08:30:23.226Z,87.42
2023-01-27T08:32:50.670Z,86.90
2023-01-27T08:35:18.113Z,86.71
2023-01-27T08:37:49.275Z,86.45
2023-01-27T08:40:18.034Z,85.76
2023-01-27T08:42:45.608Z,85.18
2023-01-27T08:45:13.153Z,84.12
2023-01-27T08:47:40.586Z,83.46
2023-01-27T08:50:09.617Z,83.50
2023-01-27T08:52:37.082Z,83.37
2023-01-27T08:55:04.950Z,83.02
2023-01-27T08:57:32.946Z,82.58
2023-01-27T09:00:00.912Z,81.32
2023-01-27T09:02:28.329Z,80.41
2023-01-27T09:04:55.809Z,78.99
2023-01-27T09:07:23.257Z,79.24
2023-01-27T09:09:55.995Z,78.50
2023-01-27T09:12:28.512Z,78.14
2023-01-27T09:14:58.213Z,76.95
2023-01-27T09:17:25.820Z,76.04
2023-01-27T09:19:53.204Z,75.43
2023-01-27T09:22:20.575Z,75.25
2023-01-27T09:24:47.960Z,77.11
2023-01-27T09:27:15.335Z,77.76
2023-01-27T09:29:42.773Z,78.03
2023-01-27T09:32:12.553Z,78.11
2023-01-27T09:34:40.088Z,77.85
2023-01-27T09:37:11.476Z,77.90
2023-01-27T09:39:51.786Z,77.74
2023-01-27T09:42:34.328Z,76.09
2023-01-27T09:46:01.828Z,75.90
2023-01-27T09:48:53.964Z,74.31
2023-01-27T09:51:47.134Z,74.81
2023-01-27T09:55:09.611Z,76.02
2023-01-27T09:58:17.814Z,77.84
2023-01-27T10:01:14.089Z,77.33
2023-01-27T10:04:30.191Z,77.67
2023-01-27T10:07:24.162Z,77.46
2023-01-27T10:10:33.235Z,77.05
2023-01-27T10:13:34.657Z,77.40
2023-01-27T10:16:53.369Z,78.49
2023-01-27T10:19:42.231Z,79.53
2023-01-27T10:22:12.548Z,80.91
2023-01-27T10:24:45.735Z,81.28
2023-01-27T10:27:25.446Z,81.61
2023-01-27T10:30:23.303Z,82.41
2023-01-27T10:33:02.385Z,83.51
2023-01-27T10:35:46.300Z,83.86
2023-01-27T10:38:43.188Z,84.03
2023-01-27T10:41:44.980Z,82.40
2023-01-27T10:44:14.971Z,82.67
2023-01-27T10:47:13.990Z,81.71
2023-01-27T10:49:59.059Z,82.77
2023-01-27T10:52:38.531Z,82.04
2023-01-27T10:55:15.063Z,83.07
2023-01-27T10:58:00.368Z,83.72
2023-01-27T11:01:17.699Z,83.72
2023-01-27T11:03:38.247Z,84.06
2023-01-27T11:06:22.495Z,84.32
2023-01-27T11:08:59.069Z,84.32
2023-01-27T11:11:45.808Z,85.29
2023-01-27T11:14:30.072Z,85.19
2023-01-27T11:17:24.377Z,85.68
2023-01-27T11:20:13.588Z,85.99
2023-01-27T11:23:19.005Z,86.44
2023-01-27T11:25:52.803Z,86.40
2023-01-27T11:28:31.132Z,86.92
2023-01-27T11:31:16.807Z,86.86
2023-01-27T11:34:24.333Z,87.44
2023-01-27T11:36:52.153Z,87.03
2023-01-27T11:39:20.093Z,87.77
2023-01-27T11:41:54.278Z,87.82
2023-01-27T11:44:32.308Z,87.95
2023-01-27T11:47:02.274Z,87.68
2023-01-27T11:49:39.249Z,87.75
2023-01-27T11:52:14.133Z,87.67
2023-01-27T11:55:14.356Z,87.85
2023-01-27T11:57:51.018Z,87.61
2023-01-27T12:00:44.620Z,87.46
2023-01-27T12:04:06.932Z,87.95
2023-01-27T12:07:02.757Z,87.70
2023-01-27T12:09:31.551Z,87.47
2023-01-27T12:12:14.217Z,87.35
2023-01-27T12:14:57.814Z,87.64
2023-01-27T12:17:43.077Z,88.06
2023-01-27T12:20:42.050Z,87.75
2023-01-27T12:23:40.942Z,87.59
2023-01-27T12:26:12.009Z,87.41
2023-01-27T12:28:50.786Z,87.13
2023-01-27T12:31:26.696Z,87.61
2023-01-27T12:34:19.138Z,88.04
2023-01-27T12:36:48.119Z,87.73
2023-01-27T12:39:45.520Z,87.92
2023-01-27T12:42:51.801Z,87.53
2023-01-27T12:45:35.573Z,87.91
2023-01-27T12:48:18.165Z,87.29
2023-01-27T12:50:51.375Z,87.72
2023-01-27T12:53:30.206Z,87.53
2023-01-27T12:56:16.501Z,87.89
2023-01-27T12:59:01.267Z,88.16
2023-01-27T13:01:38.414Z,88.20
2023-01-27T13:04:20.050Z,88.35
2023-01-27T13:07:02.573Z,88.20
2023-01-27T13:09:35.132Z,88.33
2023-01-27T13:12:23.460Z,88.71
2023-01-27T13:14:58.146Z,88.85
2023-01-27T13:17:49.150Z,88.92
2023-01-27T13:20:39.258Z,89.08
2023-01-27T13:23:19.358Z,88.90
2023-01-27T13:26:04.652Z,88.81
2023-01-27T13:28:54.720Z,88.71
2023-01-27T13:32:04.747Z,88.76
2023-01-27T13:35:13.334Z,88.92
2023-01-27T13:37:49.398Z,88.90
2023-01-27T13:40:22.078Z,88.94
2023-01-27T13:43:10.328Z,89.01
2023-01-27T13:45:41.627Z,89.13
2023-01-27T13:48:27.718Z,89.34
2023-01-27T13:51:11.726Z,89.52
2023-01-27T13:53:39.774Z,89.53
2023-01-27T13:56:07.223Z,89.63
2023-01-27T13:58:58.580Z,89.63
2023-01-27T14:01:44.917Z,89.64
2023-01-27T14:05:10.234Z,90.00
2023-01-27T14:07:58.007Z,89.73
2023-01-27T14:10:35.811Z,89.69
2023-01-27T14:13:27.274Z,89.66
2023-01-27T14:16:19.356Z,89.63
2023-01-27T14:18:57.280Z,89.78
2023-01-27T14:21:48.504Z,89.66
2023-01-27T14:24:43.009Z,89.67
2023-01-27T14:27:25.776Z,89.57
2023-01-27T14:29:58.999Z,89.45
2023-01-27T14:32:38.857Z,89.53
2023-01-27T14:36:03.616Z,89.73
2023-01-27T14:38:55.617Z,89.57
2023-01-27T14:41:47.514Z,89.51
2023-01-27T14:44:44.026Z,89.50
2023-01-27T14:47:52.613Z,89.55
2023-01-27T14:50:51.114Z,89.14
2023-01-27T14:53:27.622Z,88.95
2023-01-27T14:56:34.343Z,88.90
2023-01-27T14:59:14.297Z,89.11
2023-01-27T15:02:16.783Z,89.46
2023-01-27T15:05:08.591Z,89.52
2023-01-27T15:08:00.363Z,89.28
2023-01-27T15:10:31.355Z,89.36
2023-01-27T15:13:23.751Z,89.49
2023-01-27T15:16:20.383Z,89.73
2023-01-27T15:19:17.159Z,89.78
2023-01-27T15:21:56.591Z,89.87
2023-01-27T15:24:50.271Z,89.61
2023-01-27T15:27:18.212Z,89.64
2023-01-27T15:29:46.739Z,89.86
2023-01-27T15:32:16.904Z,89.85
2023-01-27T15:34:51.053Z,89.91
2023-01-27T15:37:26.701Z,89.76
2023-01-27T15:40:16.818Z,89.92
2023-01-27T15:42:52.560Z,90.08
2023-01-27T15:45:30.376Z,90.10
2023-01-27T15:48:02.645Z,89.98
2023-01-27T15:50:34.905Z,90.12
2023-01-27T15:53:22.643Z,90.11
2023-01-27T15:55:54.363Z,90.09
2023-01-27T15:58:58.442Z,90.24
2023-01-27T16:01:31.008Z,90.54
2023-01-27T16:04:25.086Z,90.48
2023-01-27T16:07:03.074Z,90.48
2023-01-27T16:09:39.498Z,90.45
2023-01-27T16:12:47.979Z,90.55
2023-01-27T16:15:15.635Z,90.66
2023-01-27T16:18:23.371Z,90.71
2023-01-27T16:21:08.376Z,90.63
2023-01-27T16:24:00.718Z,90.74
2023-01-27T16:26:43.218Z,90.72
2023-01-27T16:29:48.394Z,90.74
2023-01-27T16:32:23.343Z,91.08
2023-01-27T16:34:55.911Z,90.86
2023-01-27T16:37:30.593Z,90.91
2023-01-27T16:40:22.552Z,90.81
2023-01-27T16:42:52.960Z,90.76
2023-01-27T16:45:25.032Z,90.85
2023-01-27T16:47:59.438Z,91.02
2023-01-27T16:50:40.062Z,90.96
2023-01-27T16:53:18.923Z,90.91
2023-01-27T16:55:58.634Z,91.12
2023-01-27T16:58:39.746Z,90.96
2023-01-27T17:01:28.414Z,91.00
2023-01-27T17:04:14.147Z,90.96
2023-01-27T17:06:47.018Z,90.95
2023-01-27T17:09:31.909Z,91.13
2023-01-27T17:11:59.784Z,91.14
2023-01-27T17:14:38.276Z,91.17
2023-01-27T17:17:20.507Z,91.17
2023-01-27T17:19:51.886Z,91.10
2023-01-27T17:22:24.145Z,91.01
2023-01-27T17:25:03.247Z,91.09
2023-01-27T17:27:39.989Z,91.25
2023-01-27T17:30:19.057Z,91.10
2023-01-27T17:32:51.055Z,91.23
2023-01-27T17:35:32.932Z,91.20
2023-01-27T17:38:19.867Z,90.98
2023-01-27T17:40:53.535Z,91.03
2023-01-27T17:43:38.217Z,91.04
2023-01-27T17:46:05.781Z,91.13
2023-01-27T17:48:35.373Z,90.99
2023-01-27T17:51:02.860Z,91.17
2023-01-27T17:53:30.726Z,91.03
2023-01-27T17:55:59.381Z,91.06
2023-01-27T17:58:28.018Z,90.85
2023-01-27T18:00:55.928Z,90.87
2023-01-27T18:03:32.782Z,91.19
2023-01-27T18:06:03.875Z,91.18
2023-01-27T18:08:36.397Z,91.16
2023-01-27T18:11:21.590Z,91.37
2023-01-27T18:13:54.502Z,91.30
2023-01-27T18:16:24.746Z,91.36
2023-01-27T18:18:53.524Z,91.28
2023-01-27T18:21:27.220Z,91.23
2023-01-27T18:24:00.380Z,91.41
2023-01-27T18:26:37.468Z,91.37
2023-01-27T18:29:37.643Z,91.42
2023-01-27T18:32:14.448Z,91.29
2023-01-27T18:34:52.863Z,91.33
2023-01-27T18:37:30.875Z,91.25
2023-01-27T18:40:02.382Z,91.27
2023-01-27T18:42:32.088Z,91.33
2023-01-27T18:45:00.055Z,91.29
2023-01-27T18:47:34.721Z,91.44
2023-01-27T18:50:11.421Z,91.46
2023-01-27T18:52:40.452Z,91.58
2023-01-27T18:55:23.509Z,91.75
2023-01-27T18:58:00.152Z,91.69
2023-01-27T19:00:38.474Z,91.73
2023-01-27T19:03:39.138Z,91.65
2023-01-27T19:06:16.634Z,91.68
2023-01-27T19:08:45.205Z,91.59
2023-01-27T19:11:16.872Z,91.81
2023-01-27T19:13:48.850Z,91.81
2023-01-27T19:16:18.271Z,91.76
2023-01-27T19:18:46.442Z,91.62
2023-01-27T19:21:18.931Z,91.76
2023-01-27T19:23:48.690Z,91.79
2023-01-27T19:26:22.979Z,91.77
2023-01-27T19:28:56.826Z,91.72
2023-01-27T19:31:25.057Z,91.67
2023-01-27T19:33:55.596Z,91.60
2023-01-27T19:36:46.314Z,91.64
2023-01-27T19:39:20.498Z,91.58
2023-01-27T19:41:50.461Z,91.60
2023-01-27T19:44:20.633Z,91.64
2023-01-27T19:46:48.915Z,91.67
2023-01-27T19:49:18.949Z,91.61
2023-01-27T19:51:48.132Z,91.65
2023-01-27T19:54:17.241Z,91.71
2023-01-27T19:56:45.742Z,91.71
2023-01-27T19:59:13.875Z,91.76
2023-01-27T20:01:41.940Z,91.67
2023-01-27T20:04:10.767Z,91.66
2023-01-27T20:06:38.752Z,91.75
2023-01-27T20:09:06.804Z,91.79
2023-01-27T20:11:43.672Z,91.70
2023-01-27T20:14:18.966Z,91.75
2023-01-27T20:16:47.220Z,91.82
2023-01-27T20:19:16.162Z,91.83
2023-01-27T20:21:46.031Z,91.79
2023-01-27T20:24:18.780Z,91.87
2023-01-27T20:26:46.942Z,91.97
2023-01-27T20:29:14.589Z,91.99
2023-01-27T20:31:42.475Z,91.88
2023-01-27T20:34:09.995Z,91.86
2023-01-27T20:36:37.358Z,91.80
2023-01-27T20:39:05.035Z,91.79
2023-01-27T20:41:32.383Z,91.83
2023-01-27T20:44:00.592Z,91.85
2023-01-27T20:46:29.839Z,91.96
2023-01-27T20:48:59.451Z,91.81
2023-01-27T20:51:26.901Z,91.70
2023-01-27T20:53:54.374Z,91.67
2023-01-27T20:56:24.386Z,91.67
2023-01-27T20:58:51.982Z,91.71
2023-01-27T21:01:22.609Z,91.61
2023-01-27T21:03:50.835Z,91.57
2023-01-27T21:06:22.031Z,91.55
2023-01-27T21:08:49.763Z,91.52
2023-01-27T21:11:20.626Z,91.54
2023-01-27T21:13:49.162Z,91.51
2023-01-27T21:16:16.605Z,91.42
2023-01-27T21:18:44.228Z,91.44
2023-01-27T21:21:27.271Z,91.39
2023-01-27T21:23:57.059Z,91.34
2023-01-27T21:26:24.628Z,91.25
2023-01-27T21:28:52.202Z,91.20
2023-01-27T21:31:21.419Z,91.31
2023-01-27T21:33:50.196Z,91.28
2023-01-27T21:36:19.275Z,91.25
2023-01-27T21:38:47.350Z,91.23
2023-01-27T21:41:39.359Z,91.34
2023-01-27T21:44:41.625Z,91.35
2023-01-27T21:47:12.593Z,91.29
2023-01-27T21:50:00.755Z,91.41
2023-01-27T21:52:39.299Z,91.38
2023-01-27T21:55:14.040Z,91.37
2023-01-27T21:57:43.256Z,91.27
2023-01-27T22:00:13.506Z,91.23
2023-01-27T22:02:42.579Z,91.22
2023-01-27T22:05:12.124Z,91.27
2023-01-27T22:07:40.552Z,91.25
2023-01-27T22:10:15.245Z,91.28
2023-01-27T22:12:43.497Z,91.73
2023-01-27T22:15:14.857Z,91.83
2023-01-27T22:17:44.133Z,91.71
2023-01-27T22:20:16.880Z,91.78
2023-01-27T22:22:45.155Z,91.69
2023-01-27T22:25:15.914Z,91.80
2023-01-27T22:27:44.468Z,91.74
2023-01-27T22:30:19.501Z,91.87
2023-01-27T22:32:47.858Z,91.86
2023-01-27T22:35:18.133Z,91.88
2023-01-27T22:37:48.861Z,91.77
2023-01-27T22:40:16.748Z,91.80
2023-01-27T22:42:44.128Z,91.83
2023-01-27T22:45:11.798Z,91.91
2023-01-27T22:47:39.154Z,91.94
2023-01-27T22:50:07.551Z,91.92
2023-01-27T22:52:37.165Z,92.07
2023-01-27T22:55:10.051Z,91.73
2023-01-27T22:57:37.807Z,91.75
2023-01-27T23:00:07.244Z,91.73
2023-01-27T23:02:36.145Z,91.76
2023-01-27T23:05:04.095Z,91.78
2023-01-27T23:07:31.433Z,91.83
2023-01-27T23:09:58.771Z,91.84
2023-01-27T23:12:26.177Z,91.69
2023-01-27T23:14:53.508Z,91.70
2023-01-27T23:17:20.827Z,91.65
2023-01-27T23:19:48.105Z,91.71
2023-01-27T23:22:15.500Z,91.64
2023-01-27T23:24:42.794Z,91.62
2023-01-27T23:27:10.461Z,91.61
2023-01-27T23:29:37.791Z,91.53
2023-01-27T23:32:05.642Z,91.81
2023-01-27T23:34:32.936Z,91.74
2023-01-27T23:37:00.338Z,91.71
2023-01-27T23:39:27.692Z,91.84
2023-01-27T23:41:55.033Z,91.69
2023-01-27T23:44:22.692Z,91.65
2023-01-27T23:46:49.963Z,91.71
2023-01-27T23:49:17.688Z,91.82
2023-01-27T23:51:45.100Z,91.72
2023-01-27T23:54:13.389Z,91.76
2023-01-27T23:56:40.722Z,91.65
2023-01-27T23:59:08.123Z,91.47
